Alden, Wisconsin
Current Conditions -  °F | °C
As of 12:55 PM on Friday 28 Nov 2014 (Local Time) from KRNH Reporting Station
Overcast Overcast  
Wind Chill:   Ceiling: 2100
Heat Index: 19°   Visibility: 10mi
Dew Point: 12°   Wind: 8mph
Humidity: 73%   Direction: 130°SE
Pressure: 29.91"   Gusts: NA
Location:  45.1804°N, 92.551°W
Report Text: KRNH 281855Z AUTO 13007KT 10SM OVC021 M07/M11 A2991 RMK AO2 T10701111
Loading
Personal Weather Stations






























Interactive Weather Map New forecast layout! Learn more

10-Day Weather Forecast

Advertisements
Track Severe Weather on mobile